Time;durP1;ratioP1;P1;durP2;ratioP2;P2;SDS_P1;SDS_P2;PMS_P1;PMS_P2;Temp;Humidity;BMP_temperature;BMP_pressure;BME280_temperature;BME280_humidity;BME280_pressure;Samples;Min_cycle;Max_cycle;Signal;HPM_P1;HPM_P2
2022/05/19 00:01:07;;;;;;;18.90;15.97;;;21.80;68.80;;;;;;5095095;28;20422;-89
2022/05/19 00:03:34;;;;;;;19.93;15.10;;;21.80;69.00;;;;;;5113453;28;20446;-88
2022/05/19 00:06:01;;;;;;;17.93;14.10;;;21.70;69.10;;;;;;5088729;28;20905;-89
2022/05/19 00:08:27;;;;;;;18.40;16.23;;;21.80;69.10;;;;;;5094887;28;20527;-89
2022/05/19 00:10:55;;;;;;;17.37;14.43;;;21.80;69.20;;;;;;5090785;28;20430;-90
2022/05/19 00:13:22;;;;;;;19.07;14.17;;;21.70;69.40;;;;;;5092433;28;20489;-89
2022/05/19 00:15:48;;;;;;;18.00;14.33;;;21.70;69.50;;;;;;5102595;28;20426;-89
2022/05/19 00:18:13;;;;;;;16.73;14.90;;;21.70;69.50;;;;;;5096703;28;20880;-89
2022/05/19 00:20:40;;;;;;;20.10;16.37;;;21.80;69.50;;;;;;5086166;28;20244;-89
2022/05/19 00:23:06;;;;;;;16.43;14.33;;;21.80;69.40;;;;;;5091099;28;20457;-89
2022/05/19 00:25:32;;;;;;;20.10;16.17;;;21.80;69.40;;;;;;5113523;28;20422;-89
2022/05/19 00:27:58;;;;;;;15.93;14.20;;;21.80;69.40;;;;;;5089191;28;20829;-89
2022/05/19 00:30:23;;;;;;;17.73;15.47;;;21.80;69.30;;;;;;5083118;28;20410;-89
2022/05/19 00:32:49;;;;;;;15.67;13.70;;;21.80;69.30;;;;;;5094687;28;20505;-89
2022/05/19 00:35:16;;;;;;;19.30;15.23;;;21.90;69.40;;;;;;5104843;28;20179;-89
2022/05/19 00:37:42;;;;;;;20.27;15.53;;;21.80;69.40;;;;;;5119462;28;20180;-90
2022/05/19 00:40:10;;;;;;;14.97;13.37;;;21.80;69.40;;;;;;5106304;28;20443;-88
2022/05/19 00:42:44;;;;;;;22.50;15.40;;;21.80;69.50;;;;;;5101359;28;20211;-89
2022/05/19 00:45:16;;;;;;;20.60;16.60;;;21.80;69.60;;;;;;5088497;28;20409;-89
2022/05/19 00:47:42;;;;;;;19.57;14.67;;;21.80;69.60;;;;;;5084148;28;20638;-89
2022/05/19 00:50:31;;;;;;;19.07;16.73;;;21.80;69.60;;;;;;5096382;28;20512;-89
2022/05/19 00:53:30;;;;;;;19.43;14.37;;;21.70;70.10;;;;;;5066260;28;20188;-88
2022/05/19 00:56:00;;;;;;;20.73;15.93;;;21.70;70.10;;;;;;5066669;28;20422;-89
2022/05/19 00:58:34;;;;;;;18.63;16.43;;;21.60;70.30;;;;;;5083625;28;20450;-89
2022/05/19 01:01:00;;;;;;;21.43;15.53;;;21.60;71.10;;;;;;5088208;28;20509;-88
2022/05/19 01:03:29;;;;;;;19.17;15.17;;;21.60;70.50;;;;;;5090909;28;20413;-89
2022/05/19 01:06:00;;;;;;;17.83;15.40;;;21.60;70.60;;;;;;5091275;28;20448;-89
2022/05/19 01:08:42;;;;;;;15.83;13.77;;;21.60;70.70;;;;;;5094773;28;20461;-89
2022/05/19 01:11:09;;;;;;;18.50;15.43;;;21.50;70.80;;;;;;5109827;28;20422;-89
2022/05/19 01:13:37;;;;;;;19.67;15.65;;;21.60;70.80;;;;;;5100681;28;20448;-88
2022/05/19 01:16:05;;;;;;;17.90;14.87;;;21.60;70.70;;;;;;5104306;28;20180;-88
2022/05/19 01:18:31;;;;;;;19.33;14.27;;;21.60;70.90;;;;;;5101893;28;20444;-87
2022/05/19 01:20:58;;;;;;;17.93;15.83;;;21.70;70.90;;;;;;5110167;28;20914;-89
2022/05/19 01:23:45;;;;;;;21.83;15.40;;;21.60;71.00;;;;;;5090774;28;20512;-90
2022/05/19 01:26:44;;;;;;;20.00;16.13;;;21.60;70.80;;;;;;5082123;28;20501;-90
2022/05/19 01:29:13;;;;;;;19.43;15.10;;;21.70;70.60;;;;;;5036501;28;20934;-89
2022/05/19 01:31:48;;;;;;;18.30;14.63;;;21.70;70.70;;;;;;5090162;28;20432;-89
2022/05/19 01:34:15;;;;;;;17.93;14.57;;;21.70;71.50;;;;;;5098399;28;20425;-90
2022/05/19 01:36:41;;;;;;;21.93;14.73;;;21.70;70.80;;;;;;5105329;28;20409;-90
2022/05/19 01:39:16;;;;;;;18.33;15.53;;;21.70;70.80;;;;;;5123984;28;20424;-89
2022/05/19 01:42:07;;;;;;;17.23;15.40;;;21.70;70.80;;;;;;5108496;28;20195;-89
2022/05/19 01:44:54;;;;;;;18.80;14.80;;;21.80;70.70;;;;;;5081608;28;20417;-89
2022/05/19 01:47:38;;;;;;;24.00;15.47;;;21.70;71.00;;;;;;5109004;28;20885;-89
2022/05/19 01:50:21;;;;;;;22.97;16.43;;;21.60;71.60;;;;;;5098835;28;20418;-89
2022/05/19 01:53:06;;;;;;;20.40;17.00;;;21.50;72.10;;;;;;5101536;28;20513;-88
2022/05/19 01:55:52;;;;;;;18.10;15.60;;;21.40;72.50;;;;;;5122130;28;20788;-89
2022/05/19 01:58:39;;;;;;;22.60;16.40;;;21.40;72.60;;;;;;5091523;28;20451;-89
2022/05/19 02:01:08;;;;;;;19.30;16.80;;;21.50;72.80;;;;;;5100946;28;20263;-88
2022/05/19 02:03:51;;;;;;;18.70;15.13;;;21.50;72.50;;;;;;5088502;28;20463;-88
2022/05/19 02:06:42;;;;;;;17.87;14.87;;;21.80;71.00;;;;;;5079757;28;20516;-88
2022/05/19 02:09:10;;;;;;;19.37;14.37;;;21.80;70.90;;;;;;5086934;28;20439;-88
2022/05/19 02:11:47;;;;;;;23.17;16.53;;;21.80;70.70;;;;;;5088752;28;20790;-88
2022/05/19 02:14:17;;;;;;;20.47;15.30;;;21.80;71.10;;;;;;5100971;28;20424;-89
2022/05/19 02:16:44;;;;;;;17.47;14.17;;;21.90;71.30;;;;;;5113730;28;20425;-89
2022/05/19 02:19:15;;;;;;;17.67;15.77;;;21.90;71.10;;;;;;5104883;28;20530;-89
2022/05/19 02:21:41;;;;;;;18.87;16.87;;;22.00;70.90;;;;;;5101435;28;20453;-89
2022/05/19 02:24:09;;;;;;;17.13;15.30;;;22.00;71.20;;;;;;5095352;28;20859;-89
2022/05/19 02:26:38;;;;;;;24.13;14.40;;;22.00;71.50;;;;;;5081827;28;20417;-89
2022/05/19 02:29:09;;;;;;;16.03;14.07;;;22.10;71.70;;;;;;5065454;28;20420;-89
2022/05/19 02:31:35;;;;;;;15.97;13.20;;;22.10;71.60;;;;;;5107201;28;20418;-88
2022/05/19 02:34:01;;;;;;;16.47;12.90;;;22.20;71.80;;;;;;5112363;28;20418;-89
2022/05/19 02:36:27;;;;;;;15.23;13.43;;;22.20;71.60;;;;;;5087716;28;20436;-89
2022/05/19 02:38:54;;;;;;;14.87;13.50;;;22.30;71.00;;;;;;5088821;28;20180;-89
2022/05/19 02:41:19;;;;;;;17.43;14.87;;;22.50;70.60;;;;;;5092106;28;20453;-89
2022/05/19 02:43:45;;;;;;;16.80;15.00;;;22.40;71.20;;;;;;5095596;28;20421;-89
2022/05/19 02:46:11;;;;;;;17.53;15.70;;;22.30;72.40;;;;;;5078558;28;20205;-89
2022/05/19 02:48:37;;;;;;;19.17;15.07;;;22.20;72.10;;;;;;5112443;28;20207;-89
2022/05/19 02:51:04;;;;;;;15.37;12.80;;;22.20;72.30;;;;;;5104884;28;20205;-89
2022/05/19 02:53:30;;;;;;;19.53;15.07;;;22.20;72.40;;;;;;5094819;28;20229;-89
2022/05/19 02:56:00;;;;;;;17.70;13.20;;;22.20;72.40;;;;;;5101325;28;20432;-89
2022/05/19 02:58:26;;;;;;;12.80;10.70;;;22.20;72.30;;;;;;5096252;28;20198;-89
2022/05/19 03:00:52;;;;;;;11.13;10.00;;;22.10;71.50;;;;;;5093389;28;20425;-89
2022/05/19 03:03:19;;;;;;;13.57;10.20;;;22.10;71.50;;;;;;5120492;28;20179;-89
2022/05/19 03:05:45;;;;;;;15.30;9.23;;;22.20;70.90;;;;;;5111895;28;20173;-88
2022/05/19 03:08:11;;;;;;;11.60;10.27;;;22.10;72.80;;;;;;5100876;28;20481;-90
2022/05/19 03:10:40;;;;;;;13.93;9.77;;;22.10;75.20;;;;;;5090294;28;20797;-90
2022/05/19 03:13:06;;;;;;;12.50;8.17;;;22.00;77.70;;;;;;5114371;28;20453;-89
2022/05/19 03:15:33;;;;;;;9.63;7.80;;;21.80;80.60;;;;;;5114379;28;20420;-89
2022/05/19 03:17:59;;;;;;;9.13;5.93;;;21.70;82.70;;;;;;5092143;28;20463;-89
2022/05/19 03:20:25;;;;;;;9.90;5.57;;;21.70;78.90;;;;;;5101251;28;20417;-90
2022/05/19 03:22:51;;;;;;;10.40;6.03;;;21.60;80.20;;;;;;5091179;28;20832;-89
2022/05/19 03:25:17;;;;;;;9.60;5.90;;;21.30;82.50;;;;;;5107668;28;20168;-90
2022/05/19 03:27:43;;;;;;;7.70;5.90;;;21.00;86.00;;;;;;5088813;28;20195;-89
2022/05/19 03:30:12;;;;;;;10.33;6.20;;;20.70;88.20;;;;;;5106992;28;20417;-89
2022/05/19 03:32:38;;;;;;;10.13;6.90;;;20.70;88.60;;;;;;5112381;28;20179;-90
2022/05/19 03:35:05;;;;;;;8.10;6.93;;;20.60;89.30;;;;;;5092193;28;20424;-89
2022/05/19 03:37:31;;;;;;;10.77;8.20;;;20.50;90.40;;;;;;5103255;28;20464;-90
2022/05/19 03:39:57;;;;;;;10.73;7.70;;;20.40;92.50;;;;;;5120526;28;20414;-89
2022/05/19 03:42:23;;;;;;;9.43;6.67;;;20.30;93.30;;;;;;5103403;28;20229;-88
2022/05/19 03:44:48;;;;;;;7.43;6.63;;;20.30;93.60;;;;;;5128315;28;20175;-90
2022/05/19 03:47:14;;;;;;;9.23;8.33;;;20.10;93.20;;;;;;5109846;28;20191;-89
2022/05/19 03:49:40;;;;;;;13.77;8.97;;;20.10;93.90;;;;;;5114062;28;20176;-90
2022/05/19 03:52:06;;;;;;;13.73;9.40;;;20.00;94.40;;;;;;5103838;28;20175;-90
2022/05/19 03:54:32;;;;;;;13.20;8.10;;;20.00;95.10;;;;;;5091382;28;20537;-89
2022/05/19 03:56:58;;;;;;;14.10;8.80;;;20.00;95.50;;;;;;5108968;28;20192;-89
2022/05/19 03:59:23;;;;;;;13.17;8.60;;;20.00;97.40;;;;;;5087981;28;20230;-90
2022/05/19 04:01:49;;;;;;;12.57;7.63;;;20.00;96.20;;;;;;5095320;28;20195;-89
2022/05/19 04:04:15;;;;;;;16.73;7.90;;;19.90;94.90;;;;;;5080906;28;20179;-89
2022/05/19 04:06:41;;;;;;;10.30;7.07;;;19.80;94.30;;;;;;5088432;28;20505;-90
2022/05/19 04:09:07;;;;;;;20.47;10.73;;;19.80;94.70;;;;;;5089227;28;20445;-89
2022/05/19 04:11:33;;;;;;;13.53;7.33;;;19.70;95.30;;;;;;5109143;28;20194;-90
2022/05/19 04:13:59;;;;;;;15.18;7.28;;;19.50;95.90;;;;;;5120875;28;20210;-88
2022/05/19 04:16:25;;;;;;;13.20;9.17;;;19.30;97.90;;;;;;5083267;28;20195;-89
2022/05/19 04:18:51;;;;;;;14.07;10.73;;;19.20;99.90;;;;;;5086136;28;20183;-89
2022/05/19 04:21:17;;;;;;;16.23;9.20;;;19.10;99.90;;;;;;5068814;28;20253;-90
2022/05/19 04:23:43;;;;;;;13.50;11.00;;;19.00;99.90;;;;;;5084208;28;20532;-90
2022/05/19 04:26:08;;;;;;;14.38;12.40;;;18.90;99.90;;;;;;5084624;28;20244;-91
2022/05/19 04:28:35;;;;;;;16.70;11.60;;;19.10;99.90;;;;;;5080775;28;20222;-90
2022/05/19 04:31:01;;;;;;;14.23;11.40;;;19.10;99.90;;;;;;5102376;28;20417;-91
2022/05/19 04:33:28;;;;;;;13.60;11.13;;;19.10;99.90;;;;;;5081621;28;20210;-89
2022/05/19 04:35:54;;;;;;;16.92;11.20;;;19.10;99.90;;;;;;5118367;28;20175;-90
2022/05/19 04:38:20;;;;;;;13.10;11.32;;;19.00;99.90;;;;;;5128877;28;20195;-90
2022/05/19 04:40:48;;;;;;;16.33;12.32;;;19.00;99.90;;;;;;5105870;28;20658;-90
2022/05/19 04:43:26;;;;;;;12.25;10.95;;;19.00;99.90;;;;;;5102855;28;20207;-91
2022/05/19 04:45:54;;;;;;;14.65;11.25;;;19.00;99.90;;;;;;5102193;28;20730;-90
2022/05/19 04:48:21;;;;;;;16.92;14.07;;;19.10;99.90;;;;;;5084412;28;20219;-90
2022/05/19 04:50:54;;;;;;;17.77;12.63;;;19.10;99.90;;;;;;5105038;28;20174;-90
2022/05/19 04:53:20;;;;;;;19.05;13.50;;;19.10;99.90;;;;;;5103542;28;20172;-89
2022/05/19 04:55:46;;;;;;;13.88;11.77;;;19.20;99.90;;;;;;5105908;28;20171;-90
2022/05/19 04:58:12;;;;;;;14.65;12.40;;;19.20;99.90;;;;;;5086821;28;20203;-89
2022/05/19 05:00:38;;;;;;;16.10;11.90;;;19.20;99.90;;;;;;5081919;28;20176;-89
2022/05/19 05:03:06;;;;;;;22.42;12.75;;;19.20;99.90;;;;;;5083228;28;20203;-89
2022/05/19 05:05:32;;;;;;;18.98;12.68;;;19.30;99.90;;;;;;5085716;28;20180;-89
2022/05/19 05:07:58;;;;;;;22.52;14.10;;;19.30;99.90;;;;;;5086547;28;20260;-89
2022/05/19 05:10:24;;;;;;;19.40;12.47;;;19.30;99.90;;;;;;5096991;28;20176;-89
2022/05/19 05:12:50;;;;;;;15.63;11.45;;;19.30;99.90;;;;;;5105531;28;20514;-89
2022/05/19 05:15:16;;;;;;;20.25;12.73;;;19.30;99.90;;;;;;5105837;28;20187;-88
2022/05/19 05:17:44;;;;;;;22.33;12.33;;;19.20;99.90;;;;;;5085688;28;20565;-88
2022/05/19 05:20:14;;;;;;;17.00;12.15;;;19.20;99.90;;;;;;5113592;28;20405;-89
2022/05/19 05:22:40;;;;;;;13.10;10.55;;;19.20;99.90;;;;;;5103353;28;20243;-88
2022/05/19 05:25:10;;;;;;;15.63;13.70;;;19.30;99.90;;;;;;5098651;28;20175;-89
2022/05/19 05:27:36;;;;;;;13.82;12.38;;;19.30;99.90;;;;;;5095923;28;20441;-88
2022/05/19 05:30:04;;;;;;;14.73;11.00;;;19.30;99.90;;;;;;5095228;28;20171;-90
2022/05/19 05:32:29;;;;;;;12.02;10.65;;;19.60;99.90;;;;;;5103807;28;20671;-89
2022/05/19 05:35:04;;;;;;;16.57;13.47;;;19.60;99.90;;;;;;5105861;28;20192;-90
2022/05/19 05:37:29;;;;;;;14.07;12.60;;;19.50;99.90;;;;;;5080670;28;20221;-88
2022/05/19 05:39:55;;;;;;;15.40;13.00;;;19.50;99.90;;;;;;5082174;28;20176;-88
2022/05/19 05:42:21;;;;;;;15.33;13.33;;;19.50;99.90;;;;;;5085683;28;20208;-88
2022/05/19 05:44:48;;;;;;;15.23;11.23;;;19.70;99.90;;;;;;5116073;28;20175;-88
2022/05/19 05:47:14;;;;;;;14.73;11.50;;;19.80;99.90;;;;;;5098367;28;20433;-88
2022/05/19 05:49:56;;;;;;;14.63;12.10;;;19.80;99.90;;;;;;5098943;28;20500;-88
2022/05/19 05:52:22;;;;;;;13.85;12.50;;;19.80;99.90;;;;;;5090390;28;20643;-88
2022/05/19 05:54:47;;;;;;;16.23;11.43;;;19.80;99.90;;;;;;5107089;28;20194;-88
2022/05/19 05:57:14;;;;;;;17.27;12.00;;;19.70;99.90;;;;;;5087449;28;20195;-88
2022/05/19 05:59:41;;;;;;;16.97;11.40;;;19.80;99.90;;;;;;5107317;28;20179;-89
2022/05/19 06:02:07;;;;;;;15.30;11.60;;;19.90;99.90;;;;;;5081912;28;20554;-87
2022/05/19 06:04:34;;;;;;;19.97;11.50;;;20.10;99.90;;;;;;5099592;28;20413;-88
2022/05/19 06:07:00;;;;;;;11.10;9.67;;;20.20;99.90;;;;;;5126284;28;20504;-88
2022/05/19 06:09:26;;;;;;;16.73;11.07;;;20.30;99.90;;;;;;5135388;28;20444;-88
2022/05/19 06:11:52;;;;;;;13.33;10.30;;;20.40;99.90;;;;;;5119740;28;20397;-86
2022/05/19 06:14:18;;;;;;;12.90;9.77;;;20.50;99.90;;;;;;5104034;28;20516;-87
2022/05/19 06:16:44;;;;;;;9.77;8.70;;;20.80;99.90;;;;;;5107552;28;20424;-87
2022/05/19 06:19:10;;;;;;;11.17;8.70;;;21.20;99.90;;;;;;5077193;28;20179;-88
2022/05/19 06:21:39;;;;;;;9.30;8.13;;;21.60;99.90;;;;;;5077819;28;20206;-87
2022/05/19 06:24:10;;;;;;;13.27;7.80;;;21.80;99.90;;;;;;5079399;28;20429;-87
2022/05/19 06:26:39;;;;;;;7.40;6.70;;;22.00;99.90;;;;;;5110092;28;20425;-86
2022/05/19 06:29:09;;;;;;;7.57;6.10;;;22.30;99.90;;;;;;5097889;28;20473;-87
2022/05/19 06:31:35;;;;;;;9.67;6.53;;;22.70;99.90;;;;;;5102209;28;20420;-87
2022/05/19 06:34:01;;;;;;;11.07;9.87;;;23.00;99.20;;;;;;5107323;28;20436;-87
2022/05/19 06:36:27;;;;;;;6.80;6.10;;;23.20;95.70;;;;;;5095975;28;20418;-88
2022/05/19 06:38:53;;;;;;;5.83;5.20;;;23.60;93.00;;;;;;5085377;28;20425;-88
2022/05/19 06:44:05;;;;;;;8.83;5.50;;;24.50;84.20;;;;;;5092220;28;20459;-87
2022/05/19 06:46:31;;;;;;;10.77;5.80;;;24.70;79.90;;;;;;5061857;28;20953;-88
2022/05/19 06:48:57;;;;;;;9.43;5.90;;;24.80;77.70;;;;;;5083300;28;20411;-88
2022/05/19 06:51:23;;;;;;;7.13;5.77;;;25.00;74.90;;;;;;5073445;28;20438;-87
2022/05/19 06:53:51;;;;;;;5.53;5.00;;;25.00;73.70;;;;;;5083884;28;20421;-87
2022/05/19 06:56:16;;;;;;;8.07;5.43;;;25.20;75.00;;;;;;5095587;28;20553;-87
2022/05/19 06:58:42;;;;;;;5.30;4.27;;;25.20;73.40;;;;;;5095165;28;20469;-87
2022/05/19 07:01:08;;;;;;;7.57;5.07;;;25.20;71.70;;;;;;5100766;28;20196;-87
2022/05/19 07:03:34;;;;;;;5.33;4.27;;;25.00;72.10;;;;;;5094346;28;20305;-88
2022/05/19 07:05:59;;;;;;;4.43;3.63;;;25.10;71.30;;;;;;5073149;28;20427;-87
2022/05/19 07:08:26;;;;;;;7.77;4.77;;;25.00;72.00;;;;;;5060548;28;20457;-87
2022/05/19 07:10:52;;;;;;;5.70;4.63;;;25.10;72.20;;;;;;5059782;28;20262;-88
2022/05/19 07:13:18;;;;;;;7.47;5.17;;;25.20;71.80;;;;;;5076658;28;20924;-87
2022/05/19 07:15:43;;;;;;;9.30;4.87;;;25.40;70.70;;;;;;5059382;28;20186;-88
2022/05/19 07:18:09;;;;;;;6.40;4.50;;;25.50;70.30;;;;;;5077424;28;20730;-88
2022/05/19 07:20:44;;;;;;;6.23;4.90;;;25.60;68.40;;;;;;5062604;28;20183;-88
2022/05/19 07:23:20;;;;;;;7.93;5.20;;;25.70;66.50;;;;;;5073633;28;20540;-87
2022/05/19 07:25:47;;;;;;;6.50;5.90;;;25.80;66.10;;;;;;5116102;28;20441;-89
2022/05/19 07:28:14;;;;;;;7.50;6.80;;;25.80;66.00;;;;;;5110899;28;20433;-87
2022/05/19 07:30:43;;;;;;;8.23;6.10;;;25.70;65.90;;;;;;5103926;28;20421;-87
2022/05/19 07:33:09;;;;;;;6.90;6.20;;;25.60;67.30;;;;;;5100389;28;20429;-88
2022/05/19 07:35:35;;;;;;;6.43;5.83;;;25.60;65.90;;;;;;5089378;28;20411;-87
2022/05/19 07:38:02;;;;;;;7.33;6.60;;;25.60;67.10;;;;;;5103427;28;20436;-88
2022/05/19 07:40:28;;;;;;;7.60;6.90;;;25.50;65.70;;;;;;5103611;28;20422;-88
2022/05/19 07:43:35;;;;;;;7.83;6.40;;;25.30;65.80;;;;;;5064544;28;20979;-88
2022/05/19 07:45:40;;;;;;;9.30;6.23;;;25.20;66.70;;;;;;5080454;28;20407;-88
2022/05/19 07:48:06;;;;;;;7.20;6.50;;;25.20;67.00;;;;;;5062180;28;20446;-88
2022/05/19 07:50:32;;;;;;;9.33;8.00;;;25.20;67.60;;;;;;5065533;28;20444;-88
2022/05/19 07:52:57;;;;;;;9.87;8.80;;;25.30;67.50;;;;;;5083802;28;20417;-88
2022/05/19 07:55:23;;;;;;;14.13;9.40;;;25.20;66.70;;;;;;5086202;28;20267;-88
2022/05/19 07:57:49;;;;;;;10.63;9.33;;;25.10;66.10;;;;;;5094537;28;20200;-88
2022/05/19 08:00:15;;;;;;;12.37;8.23;;;24.80;67.10;;;;;;5099324;28;20685;-88
2022/05/19 08:02:41;;;;;;;9.00;8.10;;;24.70;69.10;;;;;;5100297;28;20457;-88
2022/05/19 08:05:38;;;;;;;13.50;8.90;;;24.90;69.40;;;;;;5097968;28;20444;-88
2022/05/19 08:08:04;;;;;;;11.43;8.73;;;25.00;68.90;;;;;;5093806;28;20219;-89
2022/05/19 08:10:30;;;;;;;14.93;9.13;;;25.20;68.80;;;;;;5087957;28;20425;-89
2022/05/19 08:15:44;;;;;;;10.17;8.90;;;25.30;67.70;;;;;;5100571;28;20395;-88
2022/05/19 08:18:13;;;;;;;10.00;9.10;;;25.40;68.20;;;;;;5083723;28;20431;-87
2022/05/19 08:20:50;;;;;;;12.73;10.20;;;25.30;67.30;;;;;;5083522;28;20421;-88
2022/05/19 08:23:22;;;;;;;12.20;10.90;;;25.20;66.90;;;;;;5086717;28;20454;-88
2022/05/19 08:25:49;;;;;;;13.33;9.90;;;25.00;66.40;;;;;;5106550;28;20485;-87
2022/05/19 08:28:16;;;;;;;11.37;9.90;;;24.80;67.40;;;;;;5084760;28;20442;-87
2022/05/19 08:30:44;;;;;;;10.20;9.20;;;24.80;67.30;;;;;;5084328;28;20436;-87
2022/05/19 08:33:11;;;;;;;13.07;9.20;;;24.70;67.00;;;;;;5092049;28;20477;-88
2022/05/19 08:35:36;;;;;;;9.97;8.97;;;24.80;67.40;;;;;;5099413;28;20482;-88
2022/05/19 08:38:02;;;;;;;11.30;9.80;;;24.90;67.70;;;;;;5093852;28;20535;-88
2022/05/19 08:40:29;;;;;;;13.07;9.33;;;25.00;67.00;;;;;;5047444;28;20406;-87
2022/05/19 08:42:59;;;;;;;15.73;9.80;;;24.90;66.50;;;;;;5080296;28;20582;-87
2022/05/19 08:45:31;;;;;;;11.37;9.77;;;24.80;67.10;;;;;;5079952;28;20411;-89
2022/05/19 08:48:19;;;;;;;12.97;8.93;;;24.80;67.40;;;;;;5079459;28;20433;-89
2022/05/19 08:50:52;;;;;;;11.50;10.33;;;24.90;67.70;;;;;;5097402;28;20958;-90
2022/05/19 08:53:18;;;;;;;10.00;9.10;;;24.90;67.80;;;;;;5079287;28;20422;-89
2022/05/19 08:55:49;;;;;;;11.53;10.43;;;25.00;67.70;;;;;;5096921;28;20463;-88
2022/05/19 08:58:39;;;;;;;11.70;8.27;;;25.10;68.10;;;;;;5080761;28;20473;-90
2022/05/19 09:01:17;;;;;;;9.93;8.93;;;25.20;68.00;;;;;;5082311;28;20425;-88
2022/05/19 09:03:56;;;;;;;12.00;9.30;;;25.30;67.40;;;;;;5097900;28;20433;-88
2022/05/19 09:06:31;;;;;;;11.23;10.13;;;25.40;67.20;;;;;;5085090;28;20489;-88
2022/05/19 09:09:15;;;;;;;11.43;9.27;;;25.50;66.30;;;;;;5098099;28;20430;-88
2022/05/19 09:11:55;;;;;;;12.73;9.70;;;25.60;65.60;;;;;;5082329;28;20418;-89
2022/05/19 09:14:28;;;;;;;14.50;10.33;;;25.60;63.80;;;;;;5081663;28;20568;-88
2022/05/19 09:17:00;;;;;;;14.63;8.50;;;25.70;63.70;;;;;;5092520;28;20463;-88
2022/05/19 09:19:33;;;;;;;8.13;7.33;;;25.70;63.50;;;;;;5084920;28;20410;-88
2022/05/19 09:22:10;;;;;;;8.37;6.97;;;25.70;64.90;;;;;;5080783;28;21036;-88
2022/05/19 09:24:36;;;;;;;11.40;8.10;;;25.90;64.60;;;;;;5085344;28;20415;-88
2022/05/19 09:27:03;;;;;;;10.73;7.90;;;26.20;62.20;;;;;;5083108;28;20450;-88
2022/05/19 09:29:40;;;;;;;12.10;8.27;;;26.50;60.50;;;;;;5082569;28;20496;-87
2022/05/19 09:32:14;;;;;;;9.30;8.50;;;26.70;59.40;;;;;;5082853;28;20436;-88
2022/05/19 09:34:52;;;;;;;10.47;7.60;;;27.00;59.20;;;;;;5086289;28;20417;-88
2022/05/19 09:37:45;;;;;;;8.60;7.70;;;27.20;59.00;;;;;;5085538;28;20430;-88
2022/05/19 09:40:10;;;;;;;7.60;6.73;;;27.50;58.00;;;;;;5110873;28;20390;-89
2022/05/19 09:43:03;;;;;;;8.20;7.50;;;27.70;57.50;;;;;;5083629;28;20518;-87
2022/05/19 09:45:29;;;;;;;9.43;8.50;;;27.70;56.40;;;;;;5078938;28;20312;-86
2022/05/19 09:48:03;;;;;;;9.33;8.43;;;27.80;56.10;;;;;;5079481;28;20508;-87
2022/05/19 09:50:32;;;;;;;12.80;7.67;;;27.70;54.70;;;;;;5097414;28;20466;-86
2022/05/19 09:53:06;;;;;;;7.30;6.73;;;27.50;55.60;;;;;;5097796;28;20955;-86
2022/05/19 09:55:41;;;;;;;6.90;6.30;;;27.50;56.00;;;;;;5080297;28;20443;-88
2022/05/19 09:58:13;;;;;;;8.13;7.30;;;27.50;56.50;;;;;;5079426;28;20437;-86
2022/05/19 10:00:57;;;;;;;11.60;7.87;;;27.60;55.80;;;;;;5079943;28;20411;-86
2022/05/19 10:03:25;;;;;;;13.70;7.70;;;27.80;55.20;;;;;;5078382;28;20461;-87
2022/05/19 10:05:55;;;;;;;8.20;7.30;;;27.90;54.40;;;;;;5078357;28;20452;-87
2022/05/19 10:08:26;;;;;;;7.03;6.13;;;28.00;55.10;;;;;;5096922;28;20461;-86
2022/05/19 10:10:59;;;;;;;6.83;5.77;;;28.30;55.20;;;;;;5079006;28;20783;-86
2022/05/19 10:13:45;;;;;;;6.23;5.63;;;28.50;54.80;;;;;;5098363;28;20427;-87
2022/05/19 10:16:19;;;;;;;6.13;5.43;;;28.70;54.80;;;;;;5100710;28;20397;-87
2022/05/19 10:19:16;;;;;;;8.33;6.53;;;28.60;55.10;;;;;;5090529;28;20470;-86
2022/05/19 10:22:04;;;;;;;6.20;5.60;;;28.40;56.40;;;;;;5091735;28;20458;-86
2022/05/19 10:24:42;;;;;;;6.93;6.23;;;28.00;56.60;;;;;;5092332;28;20897;-86
2022/05/19 10:33:26;;;;;;;11.50;8.60;;;26.70;59.10;;;;;;5097905;28;20404;-86
2022/05/19 10:36:18;;;;;;;11.03;8.40;;;26.40;60.20;;;;;;5097664;28;20422;-87
2022/05/19 10:38:44;;;;;;;18.90;9.27;;;25.90;61.40;;;;;;5077074;28;20534;-87
2022/05/19 10:41:46;;;;;;;13.70;11.80;;;25.70;62.90;;;;;;5098118;28;21034;-89
2022/05/19 10:44:41;;;;;;;20.30;13.37;;;25.20;66.30;;;;;;5079272;28;20176;-87
2022/05/19 10:47:43;;;;;;;24.10;13.77;;;24.80;72.50;;;;;;5080031;28;21023;-89
2022/05/19 10:50:09;;;;;;;21.93;10.57;;;24.20;78.50;;;;;;5099791;28;20394;-89
2022/05/19 10:52:54;;;;;;;10.10;6.97;;;23.10;82.40;;;;;;5086254;28;20456;-89
2022/05/19 10:55:49;;;;;;;21.60;9.90;;;21.90;85.60;;;;;;5095107;28;20240;-87
2022/05/19 10:58:37;;;;;;;24.43;11.73;;;21.30;91.70;;;;;;5108550;28;20472;-88
2022/05/19 11:01:31;;;;;;;21.40;13.27;;;20.80;94.80;;;;;;5095269;28;20434;-86
2022/05/19 11:04:32;;;;;;;35.80;16.40;;;20.50;97.90;;;;;;5098542;28;20477;-87
2022/05/19 11:07:22;;;;;;;25.53;17.47;;;20.20;99.90;;;;;;5008964;28;20433;-87
2022/05/19 11:10:02;;;;;;;20.45;16.40;;;20.00;99.90;;;;;;5115555;28;20394;-88
2022/05/19 11:12:35;;;;;;;25.15;19.38;;;19.80;99.90;;;;;;5102468;28;20174;-88
2022/05/19 11:15:25;;;;;;;27.20;21.73;;;19.80;99.90;;;;;;5102460;28;20160;-89
2022/05/19 11:17:56;;;;;;;33.78;29.02;;;19.60;99.90;;;;;;5083830;28;20203;-88
2022/05/19 11:20:31;;;;;;;45.78;28.40;;;19.70;99.90;;;;;;5083867;28;20176;-89
2022/05/19 11:23:07;;;;;;;31.70;26.75;;;19.60;99.90;;;;;;5100973;28;20198;-88
2022/05/19 11:28:55;;;;;;;28.20;23.83;;;19.50;99.90;;;;;;5103181;28;20240;-88
2022/05/19 11:31:42;;;;;;;24.63;22.25;;;19.30;99.90;;;;;;5103636;28;20639;-89
2022/05/19 11:34:35;;;;;;;24.77;20.48;;;19.20;99.90;;;;;;5102080;28;20172;-89
2022/05/19 11:37:30;;;;;;;30.23;22.98;;;19.20;99.90;;;;;;5081801;28;20226;-89
2022/05/19 11:40:29;;;;;;;29.88;26.67;;;19.30;99.90;;;;;;5081497;28;20164;-88
2022/05/19 11:43:10;;;;;;;33.70;27.48;;;19.40;99.90;;;;;;5045062;28;20215;-89
2022/05/19 11:46:13;;;;;;;31.52;28.27;;;19.40;99.90;;;;;;5082101;28;20168;-88
2022/05/19 11:58:01;;;;;;;30.25;27.02;;;19.50;99.90;;;;;;5099208;28;20221;-88
2022/05/19 12:00:30;;;;;;;31.20;26.90;;;19.70;99.90;;;;;;5064721;28;20169;-88
2022/05/19 12:03:06;;;;;;;27.33;24.33;;;19.80;99.90;;;;;;5081856;28;20196;-88
2022/05/19 12:05:51;;;;;;;23.33;20.27;;;19.70;99.90;;;;;;5097738;28;20639;-89
2022/05/19 12:08:28;;;;;;;20.25;18.23;;;19.90;99.90;;;;;;5079814;28;20215;-89
2022/05/19 12:11:09;;;;;;;18.45;16.60;;;19.90;99.90;;;;;;5098789;28;20542;-89
2022/05/19 12:13:36;;;;;;;19.77;15.90;;;19.70;99.90;;;;;;5080701;28;20191;-88
2022/05/19 12:16:10;;;;;;;18.13;14.52;;;19.70;99.90;;;;;;5088070;28;20179;-88
2022/05/19 12:18:43;;;;;;;19.20;17.30;;;19.80;99.90;;;;;;5093232;28;20237;-88
2022/05/19 12:21:27;;;;;;;21.80;17.98;;;19.90;99.90;;;;;;5111508;28;20313;-89
2022/05/19 12:23:57;;;;;;;16.10;14.40;;;20.00;99.90;;;;;;5090619;28;20179;-88
2022/05/19 12:26:28;;;;;;;16.50;14.73;;;20.30;99.90;;;;;;5086100;28;21005;-89
2022/05/19 12:29:04;;;;;;;14.33;12.80;;;20.60;99.90;;;;;;5100319;28;20473;-89
2022/05/19 12:31:56;;;;;;;16.03;14.43;;;20.70;94.70;;;;;;5081176;28;21079;-89
2022/05/19 12:34:31;;;;;;;16.07;14.47;;;20.80;93.30;;;;;;5081377;28;21106;-88
2022/05/19 12:37:06;;;;;;;16.33;13.00;;;20.90;94.80;;;;;;5123461;28;20435;-88
2022/05/19 12:39:49;;;;;;;14.83;12.40;;;21.20;94.20;;;;;;5102010;28;20416;-88
2022/05/19 12:42:36;;;;;;;14.90;13.33;;;21.30;92.30;;;;;;5121830;28;20441;-88
2022/05/19 12:45:27;;;;;;;12.60;11.40;;;21.10;91.60;;;;;;5112786;28;20439;-88
2022/05/19 12:48:21;;;;;;;22.13;15.17;;;21.00;93.30;;;;;;5106631;28;20468;-88
2022/05/19 12:51:08;;;;;;;17.37;15.57;;;21.00;93.60;;;;;;5119791;28;20409;-88
2022/05/19 12:53:50;;;;;;;17.80;15.90;;;20.80;93.60;;;;;;5089410;28;20418;-88
2022/05/19 12:56:40;;;;;;;18.13;16.10;;;20.60;95.00;;;;;;5095793;28;20445;-89
2022/05/19 12:59:23;;;;;;;21.30;19.03;;;20.50;97.10;;;;;;5115582;28;20422;-88
2022/05/19 13:01:52;;;;;;;24.37;20.30;;;20.40;99.20;;;;;;5083103;28;21038;-88
2022/05/19 13:04:36;;;;;;;22.80;19.80;;;20.30;99.90;;;;;;5068970;28;20422;-88
2022/05/19 13:07:10;;;;;;;23.07;20.57;;;20.40;99.90;;;;;;5105126;28;20433;-88
2022/05/19 13:09:36;;;;;;;16.57;14.97;;;20.70;99.90;;;;;;5080432;28;20516;-88
2022/05/19 13:12:09;;;;;;;16.80;15.20;;;21.10;99.90;;;;;;5081162;28;20447;-88
2022/05/19 13:14:47;;;;;;;14.77;13.40;;;21.30;99.90;;;;;;5081950;28;20906;-89
2022/05/19 13:17:43;;;;;;;15.37;13.53;;;21.20;99.90;;;;;;5103882;28;20446;-90
2022/05/19 13:20:18;;;;;;;20.67;16.60;;;21.50;99.90;;;;;;5064972;28;20418;-88
2022/05/19 13:22:50;;;;;;;15.17;13.40;;;21.60;99.90;;;;;;5098153;28;20510;-88